sensor_id;sensor_type;location;lat;lon;timestamp;P1;durP1;ratioP1;P2;durP2;ratioP2
6713;SDS011;3394;51.246;6.792;2023-04-25T00:00:45;13.70;;;7.27;;
6713;SDS011;3394;51.246;6.792;2023-04-25T00:01:44;15.48;;;7.15;;
6713;SDS011;3394;51.246;6.792;2023-04-25T00:02:42;12.10;;;5.80;;
6713;SDS011;3394;51.246;6.792;2023-04-25T00:03:40;13.00;;;6.45;;
6713;SDS011;3394;51.246;6.792;2023-04-25T00:04:38;12.27;;;6.27;;
6713;SDS011;3394;51.246;6.792;2023-04-25T00:05:37;11.90;;;6.63;;
6713;SDS011;3394;51.246;6.792;2023-04-25T00:06:35;14.43;;;7.07;;
6713;SDS011;3394;51.246;6.792;2023-04-25T00:07:34;12.88;;;7.10;;
6713;SDS011;3394;51.246;6.792;2023-04-25T00:08:32;16.73;;;6.47;;
6713;SDS011;3394;51.246;6.792;2023-04-25T00:09:31;11.80;;;6.50;;
6713;SDS011;3394;51.246;6.792;2023-04-25T00:10:29;8.85;;;5.57;;
6713;SDS011;3394;51.246;6.792;2023-04-25T00:11:28;10.85;;;5.68;;
6713;SDS011;3394;51.246;6.792;2023-04-25T00:12:27;9.30;;;6.15;;
6713;SDS011;3394;51.246;6.792;2023-04-25T00:13:26;14.45;;;6.35;;
6713;SDS011;3394;51.246;6.792;2023-04-25T00:14:24;14.07;;;5.53;;
6713;SDS011;3394;51.246;6.792;2023-04-25T00:15:24;9.60;;;5.75;;
6713;SDS011;3394;51.246;6.792;2023-04-25T00:16:23;16.33;;;5.93;;
6713;SDS011;3394;51.246;6.792;2023-04-25T00:17:22;13.82;;;6.07;;
6713;SDS011;3394;51.246;6.792;2023-04-25T00:18:21;11.02;;;5.53;;
6713;SDS011;3394;51.246;6.792;2023-04-25T00:19:20;11.23;;;6.25;;
6713;SDS011;3394;51.246;6.792;2023-04-25T00:20:18;16.47;;;6.00;;
6713;SDS011;3394;51.246;6.792;2023-04-25T00:21:17;9.10;;;5.97;;
6713;SDS011;3394;51.246;6.792;2023-04-25T00:22:15;11.73;;;4.95;;
6713;SDS011;3394;51.246;6.792;2023-04-25T00:23:14;8.48;;;5.75;;
6713;SDS011;3394;51.246;6.792;2023-04-25T00:24:14;9.88;;;5.28;;
6713;SDS011;3394;51.246;6.792;2023-04-25T00:25:13;13.07;;;6.00;;
6713;SDS011;3394;51.246;6.792;2023-04-25T00:26:11;12.87;;;6.27;;
6713;SDS011;3394;51.246;6.792;2023-04-25T00:27:10;14.90;;;5.85;;
6713;SDS011;3394;51.246;6.792;2023-04-25T00:28:08;11.47;;;5.80;;
6713;SDS011;3394;51.246;6.792;2023-04-25T00:29:06;13.13;;;5.88;;
6713;SDS011;3394;51.246;6.792;2023-04-25T00:30:05;11.07;;;5.97;;
6713;SDS011;3394;51.246;6.792;2023-04-25T00:31:04;12.55;;;6.18;;
6713;SDS011;3394;51.246;6.792;2023-04-25T00:32:04;10.68;;;5.20;;
6713;SDS011;3394;51.246;6.792;2023-04-25T00:33:02;10.18;;;5.88;;
6713;SDS011;3394;51.246;6.792;2023-04-25T00:34:00;11.80;;;5.33;;
6713;SDS011;3394;51.246;6.792;2023-04-25T00:34:59;12.93;;;5.32;;
6713;SDS011;3394;51.246;6.792;2023-04-25T00:35:57;9.63;;;5.27;;
6713;SDS011;3394;51.246;6.792;2023-04-25T00:36:56;15.25;;;5.88;;
6713;SDS011;3394;51.246;6.792;2023-04-25T00:37:54;13.13;;;5.55;;
6713;SDS011;3394;51.246;6.792;2023-04-25T00:38:52;10.30;;;5.33;;
6713;SDS011;3394;51.246;6.792;2023-04-25T00:39:51;12.77;;;6.05;;
6713;SDS011;3394;51.246;6.792;2023-04-25T00:40:51;10.30;;;5.10;;
6713;SDS011;3394;51.246;6.792;2023-04-25T00:41:52;11.60;;;5.28;;
6713;SDS011;3394;51.246;6.792;2023-04-25T00:42:52;10.05;;;5.60;;
6713;SDS011;3394;51.246;6.792;2023-04-25T00:43:51;7.85;;;5.63;;
6713;SDS011;3394;51.246;6.792;2023-04-25T00:44:51;10.40;;;5.22;;
6713;SDS011;3394;51.246;6.792;2023-04-25T00:45:50;15.52;;;5.68;;
6713;SDS011;3394;51.246;6.792;2023-04-25T00:46:49;10.32;;;5.05;;
6713;SDS011;3394;51.246;6.792;2023-04-25T00:47:49;9.32;;;5.00;;
6713;SDS011;3394;51.246;6.792;2023-04-25T00:48:47;9.63;;;4.88;;
6713;SDS011;3394;51.246;6.792;2023-04-25T00:49:46;10.63;;;5.07;;
6713;SDS011;3394;51.246;6.792;2023-04-25T00:50:44;11.33;;;5.53;;
6713;SDS011;3394;51.246;6.792;2023-04-25T00:51:49;9.77;;;5.18;;
6713;SDS011;3394;51.246;6.792;2023-04-25T00:52:47;12.20;;;6.30;;
6713;SDS011;3394;51.246;6.792;2023-04-25T00:53:46;10.48;;;5.50;;
6713;SDS011;3394;51.246;6.792;2023-04-25T00:54:45;10.68;;;5.63;;
6713;SDS011;3394;51.246;6.792;2023-04-25T00:55:44;13.98;;;5.30;;
6713;SDS011;3394;51.246;6.792;2023-04-25T00:56:42;14.00;;;5.87;;
6713;SDS011;3394;51.246;6.792;2023-04-25T00:57:42;11.82;;;5.50;;
6713;SDS011;3394;51.246;6.792;2023-04-25T00:58:40;10.25;;;5.10;;
6713;SDS011;3394;51.246;6.792;2023-04-25T00:59:39;11.98;;;5.25;;
6713;SDS011;3394;51.246;6.792;2023-04-25T01:00:41;12.45;;;6.20;;
6713;SDS011;3394;51.246;6.792;2023-04-25T01:01:40;15.23;;;5.93;;
6713;SDS011;3394;51.246;6.792;2023-04-25T01:02:39;11.65;;;5.20;;
6713;SDS011;3394;51.246;6.792;2023-04-25T01:03:40;11.85;;;6.03;;
6713;SDS011;3394;51.246;6.792;2023-04-25T01:04:38;11.52;;;5.38;;
6713;SDS011;3394;51.246;6.792;2023-04-25T01:05:36;15.77;;;5.57;;
6713;SDS011;3394;51.246;6.792;2023-04-25T01:06:35;8.80;;;5.30;;
6713;SDS011;3394;51.246;6.792;2023-04-25T01:07:33;13.63;;;5.47;;
6713;SDS011;3394;51.246;6.792;2023-04-25T01:08:32;11.80;;;5.47;;
6713;SDS011;3394;51.246;6.792;2023-04-25T01:09:30;12.48;;;6.15;;
6713;SDS011;3394;51.246;6.792;2023-04-25T01:10:29;12.88;;;5.80;;
6713;SDS011;3394;51.246;6.792;2023-04-25T01:11:27;12.80;;;5.83;;
6713;SDS011;3394;51.246;6.792;2023-04-25T01:12:26;12.32;;;6.25;;
6713;SDS011;3394;51.246;6.792;2023-04-25T01:13:24;10.33;;;5.17;;
6713;SDS011;3394;51.246;6.792;2023-04-25T01:14:23;8.90;;;5.53;;
6713;SDS011;3394;51.246;6.792;2023-04-25T01:15:21;13.97;;;5.70;;
6713;SDS011;3394;51.246;6.792;2023-04-25T01:16:19;14.98;;;5.85;;
6713;SDS011;3394;51.246;6.792;2023-04-25T01:17:18;10.05;;;6.40;;
6713;SDS011;3394;51.246;6.792;2023-04-25T01:18:18;8.80;;;4.85;;
6713;SDS011;3394;51.246;6.792;2023-04-25T01:19:18;15.90;;;5.68;;
6713;SDS011;3394;51.246;6.792;2023-04-25T01:20:18;13.43;;;5.85;;
6713;SDS011;3394;51.246;6.792;2023-04-25T01:21:19;14.52;;;5.88;;
6713;SDS011;3394;51.246;6.792;2023-04-25T01:22:18;9.80;;;5.75;;
6713;SDS011;3394;51.246;6.792;2023-04-25T01:23:15;10.97;;;5.80;;
6713;SDS011;3394;51.246;6.792;2023-04-25T01:24:14;14.13;;;5.47;;
6713;SDS011;3394;51.246;6.792;2023-04-25T01:25:12;14.50;;;5.57;;
6713;SDS011;3394;51.246;6.792;2023-04-25T01:26:12;14.52;;;6.07;;
6713;SDS011;3394;51.246;6.792;2023-04-25T01:27:10;9.07;;;5.30;;
6713;SDS011;3394;51.246;6.792;2023-04-25T01:28:09;12.48;;;5.97;;
6713;SDS011;3394;51.246;6.792;2023-04-25T01:29:07;10.57;;;5.73;;
6713;SDS011;3394;51.246;6.792;2023-04-25T01:30:06;13.60;;;6.07;;
6713;SDS011;3394;51.246;6.792;2023-04-25T01:31:04;12.80;;;6.47;;
6713;SDS011;3394;51.246;6.792;2023-04-25T01:32:04;10.10;;;5.28;;
6713;SDS011;3394;51.246;6.792;2023-04-25T01:33:02;12.52;;;5.75;;
6713;SDS011;3394;51.246;6.792;2023-04-25T01:34:02;11.98;;;5.80;;
6713;SDS011;3394;51.246;6.792;2023-04-25T01:35:00;9.80;;;5.27;;
6713;SDS011;3394;51.246;6.792;2023-04-25T01:35:59;10.27;;;5.63;;
6713;SDS011;3394;51.246;6.792;2023-04-25T01:36:59;12.23;;;5.77;;
6713;SDS011;3394;51.246;6.792;2023-04-25T01:37:58;9.60;;;5.15;;
6713;SDS011;3394;51.246;6.792;2023-04-25T01:38:56;10.60;;;5.70;;
6713;SDS011;3394;51.246;6.792;2023-04-25T01:39:55;13.38;;;5.80;;
6713;SDS011;3394;51.246;6.792;2023-04-25T01:40:53;9.27;;;5.57;;
6713;SDS011;3394;51.246;6.792;2023-04-25T01:41:52;8.52;;;5.32;;
6713;SDS011;3394;51.246;6.792;2023-04-25T01:42:50;10.20;;;5.03;;
6713;SDS011;3394;51.246;6.792;2023-04-25T01:43:50;9.93;;;5.57;;
6713;SDS011;3394;51.246;6.792;2023-04-25T01:44:47;12.20;;;5.33;;
6713;SDS011;3394;51.246;6.792;2023-04-25T01:45:46;8.80;;;5.47;;
6713;SDS011;3394;51.246;6.792;2023-04-25T01:46:46;9.82;;;5.20;;
6713;SDS011;3394;51.246;6.792;2023-04-25T01:47:44;13.88;;;5.63;;
6713;SDS011;3394;51.246;6.792;2023-04-25T01:48:46;13.60;;;5.28;;
6713;SDS011;3394;51.246;6.792;2023-04-25T01:49:45;10.13;;;4.88;;
6713;SDS011;3394;51.246;6.792;2023-04-25T01:50:43;14.10;;;5.60;;
6713;SDS011;3394;51.246;6.792;2023-04-25T01:51:42;8.50;;;4.65;;
6713;SDS011;3394;51.246;6.792;2023-04-25T01:52:41;11.45;;;4.97;;
6713;SDS011;3394;51.246;6.792;2023-04-25T01:53:40;10.45;;;5.63;;
6713;SDS011;3394;51.246;6.792;2023-04-25T01:54:39;12.75;;;5.78;;
6713;SDS011;3394;51.246;6.792;2023-04-25T01:55:41;12.38;;;5.60;;
6713;SDS011;3394;51.246;6.792;2023-04-25T01:56:39;6.60;;;4.70;;
6713;SDS011;3394;51.246;6.792;2023-04-25T01:57:38;11.35;;;5.32;;
6713;SDS011;3394;51.246;6.792;2023-04-25T01:58:36;8.52;;;4.90;;
6713;SDS011;3394;51.246;6.792;2023-04-25T01:59:35;7.30;;;4.40;;
6713;SDS011;3394;51.246;6.792;2023-04-25T02:00:33;7.18;;;4.65;;
6713;SDS011;3394;51.246;6.792;2023-04-25T02:01:35;7.68;;;4.70;;
6713;SDS011;3394;51.246;6.792;2023-04-25T02:02:33;7.53;;;4.75;;
6713;SDS011;3394;51.246;6.792;2023-04-25T02:03:31;8.40;;;4.40;;
6713;SDS011;3394;51.246;6.792;2023-04-25T02:04:30;8.68;;;4.80;;
6713;SDS011;3394;51.246;6.792;2023-04-25T02:05:28;8.85;;;5.20;;
6713;SDS011;3394;51.246;6.792;2023-04-25T02:06:32;11.30;;;5.15;;
6713;SDS011;3394;51.246;6.792;2023-04-25T02:07:30;9.40;;;5.30;;
6713;SDS011;3394;51.246;6.792;2023-04-25T02:08:31;6.82;;;4.55;;
6713;SDS011;3394;51.246;6.792;2023-04-25T02:09:28;8.75;;;4.47;;
6713;SDS011;3394;51.246;6.792;2023-04-25T02:10:27;11.73;;;5.35;;
6713;SDS011;3394;51.246;6.792;2023-04-25T02:11:25;9.23;;;4.80;;
6713;SDS011;3394;51.246;6.792;2023-04-25T02:12:24;9.27;;;5.10;;
6713;SDS011;3394;51.246;6.792;2023-04-25T02:13:23;7.82;;;4.60;;
6713;SDS011;3394;51.246;6.792;2023-04-25T02:14:22;8.70;;;5.30;;
6713;SDS011;3394;51.246;6.792;2023-04-25T02:15:19;9.00;;;5.30;;
6713;SDS011;3394;51.246;6.792;2023-04-25T02:16:18;7.25;;;5.05;;
6713;SDS011;3394;51.246;6.792;2023-04-25T02:17:16;8.73;;;5.27;;
6713;SDS011;3394;51.246;6.792;2023-04-25T02:18:15;11.90;;;5.45;;
6713;SDS011;3394;51.246;6.792;2023-04-25T02:19:13;7.60;;;4.28;;
6713;SDS011;3394;51.246;6.792;2023-04-25T02:20:12;9.00;;;4.68;;
6713;SDS011;3394;51.246;6.792;2023-04-25T02:21:09;7.57;;;5.10;;
6713;SDS011;3394;51.246;6.792;2023-04-25T02:22:08;10.25;;;4.45;;
6713;SDS011;3394;51.246;6.792;2023-04-25T02:23:07;7.40;;;4.40;;
6713;SDS011;3394;51.246;6.792;2023-04-25T02:24:08;11.30;;;4.80;;
6713;SDS011;3394;51.246;6.792;2023-04-25T02:25:06;9.27;;;4.65;;
6713;SDS011;3394;51.246;6.792;2023-04-25T02:26:06;7.97;;;5.03;;
6713;SDS011;3394;51.246;6.792;2023-04-25T02:27:03;10.83;;;4.43;;
6713;SDS011;3394;51.246;6.792;2023-04-25T02:28:03;9.07;;;5.35;;
6713;SDS011;3394;51.246;6.792;2023-04-25T02:29:01;8.10;;;4.90;;
6713;SDS011;3394;51.246;6.792;2023-04-25T02:29:59;10.25;;;5.28;;
6713;SDS011;3394;51.246;6.792;2023-04-25T02:30:57;11.03;;;5.80;;
6713;SDS011;3394;51.246;6.792;2023-04-25T02:31:56;8.27;;;5.28;;
6713;SDS011;3394;51.246;6.792;2023-04-25T02:32:54;7.32;;;5.03;;
6713;SDS011;3394;51.246;6.792;2023-04-25T02:33:53;11.95;;;5.47;;
6713;SDS011;3394;51.246;6.792;2023-04-25T02:34:51;10.97;;;5.63;;
6713;SDS011;3394;51.246;6.792;2023-04-25T02:35:50;8.48;;;4.85;;
6713;SDS011;3394;51.246;6.792;2023-04-25T02:36:47;9.93;;;5.03;;
6713;SDS011;3394;51.246;6.792;2023-04-25T02:37:46;9.60;;;5.35;;
6713;SDS011;3394;51.246;6.792;2023-04-25T02:38:44;10.23;;;5.53;;
6713;SDS011;3394;51.246;6.792;2023-04-25T02:39:44;11.40;;;6.15;;
6713;SDS011;3394;51.246;6.792;2023-04-25T02:40:42;8.23;;;5.10;;
6713;SDS011;3394;51.246;6.792;2023-04-25T02:41:41;6.90;;;4.80;;
6713;SDS011;3394;51.246;6.792;2023-04-25T02:42:39;8.10;;;5.10;;
6713;SDS011;3394;51.246;6.792;2023-04-25T02:43:37;8.20;;;4.93;;
6713;SDS011;3394;51.246;6.792;2023-04-25T02:44:35;8.13;;;5.10;;
6713;SDS011;3394;51.246;6.792;2023-04-25T02:45:34;9.13;;;5.63;;
6713;SDS011;3394;51.246;6.792;2023-04-25T02:46:32;8.20;;;4.82;;
6713;SDS011;3394;51.246;6.792;2023-04-25T02:47:31;9.00;;;5.55;;
6713;SDS011;3394;51.246;6.792;2023-04-25T02:48:28;8.50;;;4.27;;
6713;SDS011;3394;51.246;6.792;2023-04-25T02:49:27;9.07;;;4.85;;
6713;SDS011;3394;51.246;6.792;2023-04-25T02:50:25;6.20;;;4.80;;
6713;SDS011;3394;51.246;6.792;2023-04-25T02:51:24;7.72;;;4.53;;
6713;SDS011;3394;51.246;6.792;2023-04-25T02:52:22;8.80;;;5.30;;
6713;SDS011;3394;51.246;6.792;2023-04-25T02:53:20;9.02;;;5.20;;
6713;SDS011;3394;51.246;6.792;2023-04-25T02:54:18;9.50;;;5.50;;
6713;SDS011;3394;51.246;6.792;2023-04-25T02:55:18;11.45;;;5.35;;
6713;SDS011;3394;51.246;6.792;2023-04-25T02:56:16;9.00;;;5.55;;
6713;SDS011;3394;51.246;6.792;2023-04-25T02:57:15;9.32;;;4.90;;
6713;SDS011;3394;51.246;6.792;2023-04-25T02:58:13;8.43;;;5.13;;
6713;SDS011;3394;51.246;6.792;2023-04-25T02:59:12;10.82;;;5.50;;
6713;SDS011;3394;51.246;6.792;2023-04-25T03:00:10;11.63;;;5.77;;
6713;SDS011;3394;51.246;6.792;2023-04-25T03:01:11;7.88;;;5.25;;
6713;SDS011;3394;51.246;6.792;2023-04-25T03:02:09;7.80;;;4.60;;
6713;SDS011;3394;51.246;6.792;2023-04-25T03:03:08;9.57;;;5.60;;
6713;SDS011;3394;51.246;6.792;2023-04-25T03:04:05;10.13;;;5.37;;
6713;SDS011;3394;51.246;6.792;2023-04-25T03:05:04;9.48;;;5.63;;
6713;SDS011;3394;51.246;6.792;2023-04-25T03:06:03;10.07;;;6.35;;
6713;SDS011;3394;51.246;6.792;2023-04-25T03:07:01;7.20;;;5.10;;
6713;SDS011;3394;51.246;6.792;2023-04-25T03:07:59;9.47;;;5.70;;
6713;SDS011;3394;51.246;6.792;2023-04-25T03:08:58;9.25;;;5.70;;
6713;SDS011;3394;51.246;6.792;2023-04-25T03:09:56;9.07;;;5.87;;
6713;SDS011;3394;51.246;6.792;2023-04-25T03:10:56;10.32;;;5.47;;
6713;SDS011;3394;51.246;6.792;2023-04-25T03:11:54;10.15;;;6.53;;
6713;SDS011;3394;51.246;6.792;2023-04-25T03:12:53;8.27;;;5.25;;
6713;SDS011;3394;51.246;6.792;2023-04-25T03:13:50;8.30;;;5.20;;
6713;SDS011;3394;51.246;6.792;2023-04-25T03:14:49;9.68;;;6.05;;
6713;SDS011;3394;51.246;6.792;2023-04-25T03:15:47;10.23;;;6.00;;
6713;SDS011;3394;51.246;6.792;2023-04-25T03:16:46;12.38;;;5.13;;
6713;SDS011;3394;51.246;6.792;2023-04-25T03:17:44;10.73;;;5.40;;
6713;SDS011;3394;51.246;6.792;2023-04-25T03:18:42;11.38;;;5.47;;
6713;SDS011;3394;51.246;6.792;2023-04-25T03:19:40;12.47;;;5.67;;
6713;SDS011;3394;51.246;6.792;2023-04-25T03:20:39;10.20;;;5.20;;
6713;SDS011;3394;51.246;6.792;2023-04-25T03:21:38;9.30;;;5.65;;
6713;SDS011;3394;51.246;6.792;2023-04-25T03:22:37;12.48;;;6.20;;
6713;SDS011;3394;51.246;6.792;2023-04-25T03:23:35;11.00;;;5.67;;
6713;SDS011;3394;51.246;6.792;2023-04-25T03:24:33;10.35;;;5.20;;
6713;SDS011;3394;51.246;6.792;2023-04-25T03:25:32;8.95;;;4.85;;
6713;SDS011;3394;51.246;6.792;2023-04-25T03:26:32;8.70;;;5.15;;
6713;SDS011;3394;51.246;6.792;2023-04-25T03:27:30;12.00;;;6.00;;
6713;SDS011;3394;51.246;6.792;2023-04-25T03:28:28;13.88;;;5.35;;
6713;SDS011;3394;51.246;6.792;2023-04-25T03:29:26;9.67;;;5.10;;
6713;SDS011;3394;51.246;6.792;2023-04-25T03:30:25;9.85;;;6.18;;
6713;SDS011;3394;51.246;6.792;2023-04-25T03:31:23;9.80;;;5.80;;
6713;SDS011;3394;51.246;6.792;2023-04-25T03:33:25;8.80;;;5.53;;
6713;SDS011;3394;51.246;6.792;2023-04-25T03:34:24;8.68;;;4.57;;
6713;SDS011;3394;51.246;6.792;2023-04-25T03:35:22;11.82;;;5.88;;
6713;SDS011;3394;51.246;6.792;2023-04-25T03:36:21;9.52;;;4.97;;
6713;SDS011;3394;51.246;6.792;2023-04-25T03:37:20;8.75;;;5.30;;
6713;SDS011;3394;51.246;6.792;2023-04-25T03:38:18;9.50;;;6.20;;
6713;SDS011;3394;51.246;6.792;2023-04-25T03:39:17;11.20;;;5.55;;
6713;SDS011;3394;51.246;6.792;2023-04-25T03:40:14;9.90;;;5.50;;
6713;SDS011;3394;51.246;6.792;2023-04-25T03:41:13;9.68;;;5.85;;
6713;SDS011;3394;51.246;6.792;2023-04-25T03:42:13;15.30;;;5.90;;
6713;SDS011;3394;51.246;6.792;2023-04-25T03:43:11;10.73;;;5.68;;
6713;SDS011;3394;51.246;6.792;2023-04-25T03:44:09;9.13;;;5.93;;
6713;SDS011;3394;51.246;6.792;2023-04-25T03:45:09;10.85;;;5.97;;
6713;SDS011;3394;51.246;6.792;2023-04-25T03:46:06;9.25;;;5.90;;
6713;SDS011;3394;51.246;6.792;2023-04-25T03:47:05;11.55;;;5.60;;
6713;SDS011;3394;51.246;6.792;2023-04-25T03:48:03;10.53;;;5.77;;
6713;SDS011;3394;51.246;6.792;2023-04-25T03:49:02;9.35;;;6.13;;
6713;SDS011;3394;51.246;6.792;2023-04-25T03:50:00;8.93;;;5.90;;
6713;SDS011;3394;51.246;6.792;2023-04-25T03:50:59;12.63;;;6.32;;
6713;SDS011;3394;51.246;6.792;2023-04-25T03:51:57;12.43;;;6.00;;
6713;SDS011;3394;51.246;6.792;2023-04-25T03:52:57;11.48;;;6.30;;
6713;SDS011;3394;51.246;6.792;2023-04-25T03:53:55;7.93;;;5.43;;
6713;SDS011;3394;51.246;6.792;2023-04-25T03:54:54;8.93;;;5.85;;
6713;SDS011;3394;51.246;6.792;2023-04-25T03:55:51;13.48;;;6.10;;
6713;SDS011;3394;51.246;6.792;2023-04-25T03:56:50;10.60;;;5.93;;
6713;SDS011;3394;51.246;6.792;2023-04-25T03:57:49;9.20;;;5.73;;
6713;SDS011;3394;51.246;6.792;2023-04-25T03:58:48;10.25;;;6.03;;
6713;SDS011;3394;51.246;6.792;2023-04-25T03:59:46;9.60;;;6.47;;
6713;SDS011;3394;51.246;6.792;2023-04-25T04:00:45;12.75;;;6.50;;
6713;SDS011;3394;51.246;6.792;2023-04-25T04:01:43;12.27;;;5.68;;
6713;SDS011;3394;51.246;6.792;2023-04-25T04:02:42;14.95;;;6.93;;
6713;SDS011;3394;51.246;6.792;2023-04-25T04:03:41;10.15;;;6.15;;
6713;SDS011;3394;51.246;6.792;2023-04-25T04:04:39;11.03;;;6.60;;
6713;SDS011;3394;51.246;6.792;2023-04-25T04:05:38;11.98;;;6.63;;
6713;SDS011;3394;51.246;6.792;2023-04-25T04:06:37;12.70;;;7.20;;
6713;SDS011;3394;51.246;6.792;2023-04-25T04:07:37;13.15;;;7.53;;
6713;SDS011;3394;51.246;6.792;2023-04-25T04:08:37;13.52;;;7.20;;
6713;SDS011;3394;51.246;6.792;2023-04-25T04:09:35;12.18;;;7.50;;
6713;SDS011;3394;51.246;6.792;2023-04-25T04:10:33;15.83;;;7.40;;
6713;SDS011;3394;51.246;6.792;2023-04-25T04:11:32;14.43;;;7.93;;
6713;SDS011;3394;51.246;6.792;2023-04-25T04:12:30;13.38;;;8.13;;
6713;SDS011;3394;51.246;6.792;2023-04-25T04:13:30;15.02;;;8.02;;
6713;SDS011;3394;51.246;6.792;2023-04-25T04:14:28;13.35;;;7.25;;
6713;SDS011;3394;51.246;6.792;2023-04-25T04:15:27;12.68;;;7.70;;
6713;SDS011;3394;51.246;6.792;2023-04-25T04:16:24;13.80;;;7.53;;
6713;SDS011;3394;51.246;6.792;2023-04-25T04:17:23;10.82;;;7.10;;
6713;SDS011;3394;51.246;6.792;2023-04-25T04:18:22;14.68;;;7.75;;
6713;SDS011;3394;51.246;6.792;2023-04-25T04:19:21;14.95;;;7.35;;
6713;SDS011;3394;51.246;6.792;2023-04-25T04:20:19;12.50;;;6.80;;
6713;SDS011;3394;51.246;6.792;2023-04-25T04:21:17;11.60;;;6.93;;
6713;SDS011;3394;51.246;6.792;2023-04-25T04:22:16;13.30;;;7.28;;
6713;SDS011;3394;51.246;6.792;2023-04-25T04:23:14;12.80;;;7.30;;
6713;SDS011;3394;51.246;6.792;2023-04-25T04:24:12;13.02;;;6.65;;
6713;SDS011;3394;51.246;6.792;2023-04-25T04:25:12;12.48;;;6.57;;
6713;SDS011;3394;51.246;6.792;2023-04-25T04:26:10;15.07;;;7.60;;
6713;SDS011;3394;51.246;6.792;2023-04-25T04:27:10;14.80;;;6.80;;
6713;SDS011;3394;51.246;6.792;2023-04-25T04:28:09;11.23;;;6.65;;
6713;SDS011;3394;51.246;6.792;2023-04-25T04:29:09;12.90;;;6.25;;
6713;SDS011;3394;51.246;6.792;2023-04-25T04:30:08;15.02;;;7.65;;
6713;SDS011;3394;51.246;6.792;2023-04-25T04:31:06;9.55;;;6.35;;
6713;SDS011;3394;51.246;6.792;2023-04-25T04:32:06;14.52;;;6.88;;
6713;SDS011;3394;51.246;6.792;2023-04-25T04:33:05;18.60;;;7.75;;
6713;SDS011;3394;51.246;6.792;2023-04-25T04:34:04;10.70;;;6.68;;
6713;SDS011;3394;51.246;6.792;2023-04-25T04:35:03;12.25;;;7.07;;
6713;SDS011;3394;51.246;6.792;2023-04-25T04:36:03;15.25;;;7.50;;
6713;SDS011;3394;51.246;6.792;2023-04-25T04:37:01;11.05;;;6.72;;
6713;SDS011;3394;51.246;6.792;2023-04-25T04:38:00;12.45;;;6.80;;
6713;SDS011;3394;51.246;6.792;2023-04-25T04:38:58;16.07;;;7.30;;
6713;SDS011;3394;51.246;6.792;2023-04-25T04:39:57;14.15;;;7.78;;
6713;SDS011;3394;51.246;6.792;2023-04-25T04:40:55;9.53;;;6.63;;
6713;SDS011;3394;51.246;6.792;2023-04-25T04:41:54;15.57;;;7.63;;
6713;SDS011;3394;51.246;6.792;2023-04-25T04:42:51;14.50;;;7.13;;
6713;SDS011;3394;51.246;6.792;2023-04-25T04:43:53;13.43;;;7.53;;
6713;SDS011;3394;51.246;6.792;2023-04-25T04:44:54;15.38;;;7.38;;
6713;SDS011;3394;51.246;6.792;2023-04-25T04:45:53;17.13;;;7.97;;
6713;SDS011;3394;51.246;6.792;2023-04-25T04:46:53;11.30;;;6.88;;
6713;SDS011;3394;51.246;6.792;2023-04-25T04:47:51;18.15;;;8.07;;
6713;SDS011;3394;51.246;6.792;2023-04-25T04:48:49;13.17;;;7.43;;
6713;SDS011;3394;51.246;6.792;2023-04-25T04:49:50;17.10;;;7.80;;
6713;SDS011;3394;51.246;6.792;2023-04-25T04:50:48;18.00;;;8.50;;
6713;SDS011;3394;51.246;6.792;2023-04-25T04:51:47;15.27;;;7.93;;
6713;SDS011;3394;51.246;6.792;2023-04-25T04:52:46;12.18;;;8.00;;
6713;SDS011;3394;51.246;6.792;2023-04-25T04:53:45;14.02;;;7.97;;
6713;SDS011;3394;51.246;6.792;2023-04-25T04:54:43;10.83;;;7.20;;
6713;SDS011;3394;51.246;6.792;2023-04-25T04:55:41;16.17;;;8.23;;
6713;SDS011;3394;51.246;6.792;2023-04-25T04:56:39;15.48;;;7.95;;
6713;SDS011;3394;51.246;6.792;2023-04-25T04:57:38;13.02;;;8.38;;
6713;SDS011;3394;51.246;6.792;2023-04-25T04:58:36;17.57;;;8.50;;
6713;SDS011;3394;51.246;6.792;2023-04-25T04:59:35;12.27;;;8.48;;
6713;SDS011;3394;51.246;6.792;2023-04-25T05:00:34;18.95;;;10.38;;
6713;SDS011;3394;51.246;6.792;2023-04-25T05:01:33;16.60;;;9.45;;
6713;SDS011;3394;51.246;6.792;2023-04-25T05:02:32;15.23;;;8.63;;
6713;SDS011;3394;51.246;6.792;2023-04-25T05:03:31;17.77;;;9.68;;
6713;SDS011;3394;51.246;6.792;2023-04-25T05:04:29;15.57;;;9.03;;
6713;SDS011;3394;51.246;6.792;2023-04-25T05:05:28;15.65;;;9.30;;
6713;SDS011;3394;51.246;6.792;2023-04-25T05:06:26;15.80;;;8.67;;
6713;SDS011;3394;51.246;6.792;2023-04-25T05:07:25;21.40;;;10.35;;
6713;SDS011;3394;51.246;6.792;2023-04-25T05:08:23;16.00;;;8.87;;
6713;SDS011;3394;51.246;6.792;2023-04-25T05:09:22;16.83;;;8.40;;
6713;SDS011;3394;51.246;6.792;2023-04-25T05:10:22;16.90;;;9.23;;
6713;SDS011;3394;51.246;6.792;2023-04-25T05:11:21;17.50;;;8.55;;
6713;SDS011;3394;51.246;6.792;2023-04-25T05:12:19;16.77;;;9.00;;
6713;SDS011;3394;51.246;6.792;2023-04-25T05:13:18;18.23;;;7.95;;
6713;SDS011;3394;51.246;6.792;2023-04-25T05:14:16;18.77;;;9.63;;
6713;SDS011;3394;51.246;6.792;2023-04-25T05:15:15;17.20;;;8.07;;
6713;SDS011;3394;51.246;6.792;2023-04-25T05:16:14;16.52;;;7.97;;
6713;SDS011;3394;51.246;6.792;2023-04-25T05:17:13;17.52;;;8.50;;
6713;SDS011;3394;51.246;6.792;2023-04-25T05:18:11;20.37;;;8.60;;
6713;SDS011;3394;51.246;6.792;2023-04-25T05:19:10;15.57;;;8.38;;
6713;SDS011;3394;51.246;6.792;2023-04-25T05:20:08;18.47;;;9.33;;
6713;SDS011;3394;51.246;6.792;2023-04-25T05:21:07;17.42;;;8.13;;
6713;SDS011;3394;51.246;6.792;2023-04-25T05:22:05;13.77;;;8.17;;
6713;SDS011;3394;51.246;6.792;2023-04-25T05:23:04;12.68;;;7.43;;
6713;SDS011;3394;51.246;6.792;2023-04-25T05:24:02;17.23;;;8.17;;
6713;SDS011;3394;51.246;6.792;2023-04-25T05:25:01;19.48;;;8.75;;
6713;SDS011;3394;51.246;6.792;2023-04-25T05:26:00;16.23;;;8.60;;
6713;SDS011;3394;51.246;6.792;2023-04-25T05:26:59;20.65;;;8.95;;
6713;SDS011;3394;51.246;6.792;2023-04-25T05:27:57;14.73;;;7.67;;
6713;SDS011;3394;51.246;6.792;2023-04-25T05:28:55;17.58;;;8.02;;
6713;SDS011;3394;51.246;6.792;2023-04-25T05:29:53;17.93;;;8.30;;
6713;SDS011;3394;51.246;6.792;2023-04-25T05:30:52;15.80;;;8.07;;
6713;SDS011;3394;51.246;6.792;2023-04-25T05:31:51;15.07;;;7.80;;
6713;SDS011;3394;51.246;6.792;2023-04-25T05:32:50;14.27;;;7.90;;
6713;SDS011;3394;51.246;6.792;2023-04-25T05:33:49;15.50;;;8.18;;
6713;SDS011;3394;51.246;6.792;2023-04-25T05:34:46;13.97;;;8.27;;
6713;SDS011;3394;51.246;6.792;2023-04-25T05:35:45;15.73;;;7.47;;
6713;SDS011;3394;51.246;6.792;2023-04-25T05:36:43;13.20;;;7.10;;
6713;SDS011;3394;51.246;6.792;2023-04-25T05:37:45;14.70;;;7.60;;
6713;SDS011;3394;51.246;6.792;2023-04-25T05:38:44;14.90;;;7.65;;
6713;SDS011;3394;51.246;6.792;2023-04-25T05:39:42;15.27;;;7.32;;
6713;SDS011;3394;51.246;6.792;2023-04-25T05:40:41;12.70;;;6.93;;
6713;SDS011;3394;51.246;6.792;2023-04-25T05:41:38;15.07;;;7.53;;
6713;SDS011;3394;51.246;6.792;2023-04-25T05:42:37;14.32;;;7.60;;
6713;SDS011;3394;51.246;6.792;2023-04-25T05:43:36;15.90;;;6.55;;
6713;SDS011;3394;51.246;6.792;2023-04-25T05:44:34;19.13;;;7.13;;
6713;SDS011;3394;51.246;6.792;2023-04-25T05:45:33;13.55;;;7.45;;
6713;SDS011;3394;51.246;6.792;2023-04-25T05:46:30;15.20;;;7.33;;
6713;SDS011;3394;51.246;6.792;2023-04-25T05:47:31;13.32;;;6.68;;
6713;SDS011;3394;51.246;6.792;2023-04-25T05:48:28;15.68;;;7.15;;
6713;SDS011;3394;51.246;6.792;2023-04-25T05:49:27;11.68;;;6.80;;
6713;SDS011;3394;51.246;6.792;2023-04-25T05:50:25;16.83;;;7.03;;
6713;SDS011;3394;51.246;6.792;2023-04-25T05:51:24;18.30;;;6.78;;
6713;SDS011;3394;51.246;6.792;2023-04-25T05:52:23;14.90;;;6.68;;
6713;SDS011;3394;51.246;6.792;2023-04-25T05:53:21;11.95;;;6.43;;
6713;SDS011;3394;51.246;6.792;2023-04-25T05:54:19;12.93;;;6.43;;
6713;SDS011;3394;51.246;6.792;2023-04-25T05:55:18;8.65;;;5.72;;
6713;SDS011;3394;51.246;6.792;2023-04-25T05:56:16;12.47;;;6.10;;
6713;SDS011;3394;51.246;6.792;2023-04-25T05:57:19;11.48;;;6.25;;
6713;SDS011;3394;51.246;6.792;2023-04-25T05:58:18;11.38;;;5.72;;
6713;SDS011;3394;51.246;6.792;2023-04-25T05:59:17;11.55;;;6.38;;
6713;SDS011;3394;51.246;6.792;2023-04-25T06:00:16;11.00;;;6.43;;
6713;SDS011;3394;51.246;6.792;2023-04-25T06:01:14;13.10;;;5.95;;
6713;SDS011;3394;51.246;6.792;2023-04-25T06:02:12;11.45;;;6.35;;